createdAt,value
2019-01-16T00:00:51.429Z,4.80
2019-01-16T00:01:51.482Z,4.80
2019-01-16T00:02:51.535Z,4.40
2019-01-16T00:03:51.587Z,5.00
2019-01-16T00:04:51.637Z,5.60
2019-01-16T00:05:51.691Z,5.60
2019-01-16T00:06:51.744Z,5.20
2019-01-16T00:07:51.794Z,5.20
2019-01-16T00:08:51.846Z,5.80
2019-01-16T00:09:51.900Z,5.40
2019-01-16T00:10:51.953Z,5.10
2019-01-16T00:11:52.002Z,5.00
2019-01-16T00:12:52.055Z,5.00
2019-01-16T00:13:52.109Z,4.60
2019-01-16T00:14:52.161Z,4.90
2019-01-16T00:15:52.212Z,4.90
2019-01-16T00:16:52.265Z,5.00
2019-01-16T00:17:52.317Z,5.30
2019-01-16T00:18:52.370Z,5.00
2019-01-16T00:19:52.421Z,5.40
2019-01-16T00:20:52.474Z,4.70
2019-01-16T00:21:52.528Z,4.80
2019-01-16T00:22:52.578Z,4.80
2019-01-16T00:23:52.631Z,4.90
2019-01-16T00:24:52.682Z,4.70
2019-01-16T00:25:52.734Z,4.70
2019-01-16T00:26:52.788Z,4.90
2019-01-16T00:27:52.839Z,4.90
2019-01-16T00:28:52.892Z,4.70
2019-01-16T00:29:52.943Z,4.90
2019-01-16T00:30:52.998Z,4.80
2019-01-16T00:31:53.047Z,5.30
2019-01-16T00:32:53.101Z,4.80
2019-01-16T00:33:53.153Z,4.50
2019-01-16T00:34:53.205Z,5.30
2019-01-16T00:35:53.260Z,4.50
2019-01-16T00:36:53.309Z,5.40
2019-01-16T00:37:53.363Z,5.30
2019-01-16T00:38:53.415Z,5.10
2019-01-16T00:39:53.467Z,5.10
2019-01-16T00:40:53.520Z,4.90
2019-01-16T00:41:53.572Z,5.40
2019-01-16T00:42:53.624Z,5.60
2019-01-16T00:43:53.676Z,5.40
2019-01-16T00:44:53.727Z,5.80
2019-01-16T00:45:53.780Z,5.70
2019-01-16T00:46:53.832Z,5.20
2019-01-16T00:47:53.885Z,5.20
2019-01-16T00:48:53.939Z,5.40
2019-01-16T00:49:53.989Z,5.30
2019-01-16T00:50:54.043Z,5.30
2019-01-16T00:51:54.095Z,5.00
2019-01-16T00:52:54.148Z,5.40
2019-01-16T00:53:54.200Z,5.80
2019-01-16T00:54:54.252Z,5.70
2019-01-16T00:55:54.303Z,5.50
2019-01-16T00:56:54.357Z,5.20
2019-01-16T00:57:54.410Z,4.70
2019-01-16T00:58:54.471Z,5.20
2019-01-16T00:59:54.514Z,5.20
2019-01-16T01:00:54.565Z,5.30
2019-01-16T01:01:54.620Z,5.20
2019-01-16T01:02:54.671Z,5.10
2019-01-16T01:03:54.722Z,5.40
2019-01-16T01:04:54.775Z,4.90
2019-01-16T01:05:54.828Z,5.90
2019-01-16T01:06:54.881Z,5.10
2019-01-16T01:07:54.933Z,5.40
2019-01-16T01:08:54.984Z,5.00
2019-01-16T01:09:55.037Z,5.20
2019-01-16T01:10:55.089Z,5.30
2019-01-16T01:11:55.142Z,5.10
2019-01-16T01:12:55.195Z,5.30
2019-01-16T01:13:55.247Z,5.10
2019-01-16T01:14:55.299Z,5.20
2019-01-16T01:15:55.351Z,5.20
2019-01-16T01:16:55.403Z,5.00
2019-01-16T01:17:55.458Z,5.10
2019-01-16T01:18:55.509Z,5.10
2019-01-16T01:19:55.561Z,5.30
2019-01-16T01:20:55.614Z,5.40
2019-01-16T01:21:55.666Z,4.70
2019-01-16T01:22:55.718Z,5.60
2019-01-16T01:23:55.769Z,5.40
2019-01-16T01:24:55.823Z,4.90
2019-01-16T01:25:55.876Z,5.10
2019-01-16T01:26:55.928Z,4.80
2019-01-16T01:27:55.983Z,5.40
2019-01-16T01:28:56.031Z,5.10
2019-01-16T01:29:56.085Z,5.90
2019-01-16T01:30:56.138Z,5.50
2019-01-16T01:31:56.190Z,4.80
2019-01-16T01:32:56.243Z,5.20
2019-01-16T01:33:56.294Z,5.50
2019-01-16T01:34:56.353Z,5.00
2019-01-16T01:35:56.398Z,5.10
2019-01-16T01:36:56.451Z,4.60
2019-01-16T01:37:56.505Z,4.90
2019-01-16T01:38:56.555Z,5.60
2019-01-16T01:39:56.609Z,5.30
2019-01-16T01:40:56.661Z,5.20
2019-01-16T01:41:56.715Z,5.40
2019-01-16T01:42:56.766Z,4.90
2019-01-16T01:43:56.820Z,5.70
2019-01-16T01:44:56.871Z,4.90
2019-01-16T01:45:56.922Z,4.80
2019-01-16T01:46:56.978Z,5.30
2019-01-16T01:47:57.029Z,5.30
2019-01-16T01:48:57.079Z,5.00
2019-01-16T01:49:57.131Z,6.20
2019-01-16T01:50:57.184Z,5.50
2019-01-16T01:51:57.235Z,5.30
2019-01-16T01:52:57.289Z,5.20
2019-01-16T01:53:57.340Z,4.60
2019-01-16T01:54:57.395Z,5.50
2019-01-16T01:55:57.447Z,5.30
2019-01-16T01:56:57.499Z,5.00
2019-01-16T01:57:57.550Z,5.30
2019-01-16T01:58:57.606Z,5.70
2019-01-16T01:59:57.656Z,5.00
2019-01-16T02:00:57.708Z,4.90
2019-01-16T02:01:57.760Z,5.10
2019-01-16T02:02:57.812Z,4.90
2019-01-16T02:03:57.865Z,4.90
2019-01-16T02:04:57.919Z,5.60
2019-01-16T02:05:57.970Z,5.00
2019-01-16T02:06:58.022Z,5.40
2019-01-16T02:07:58.075Z,4.60
2019-01-16T02:08:58.128Z,4.80
2019-01-16T02:09:58.242Z,6.20
2019-01-16T02:10:58.230Z,5.80
2019-01-16T02:11:58.283Z,5.10
2019-01-16T02:12:58.341Z,5.00
2019-01-16T02:13:58.390Z,5.30
2019-01-16T02:14:58.441Z,5.60
2019-01-16T02:15:58.493Z,5.20
2019-01-16T02:16:58.545Z,4.80
2019-01-16T02:17:58.596Z,4.70
2019-01-16T02:18:58.649Z,4.70
2019-01-16T02:19:58.717Z,4.60
2019-01-16T02:20:58.755Z,5.10
2019-01-16T02:21:58.807Z,4.90
2019-01-16T02:22:58.859Z,4.40
2019-01-16T02:23:58.911Z,4.50
2019-01-16T02:24:58.963Z,4.90
2019-01-16T02:25:59.015Z,4.60
2019-01-16T02:26:59.068Z,5.00
2019-01-16T02:27:59.123Z,4.80
2019-01-16T02:28:59.189Z,4.50
2019-01-16T02:29:59.224Z,4.70
2019-01-16T02:30:59.277Z,4.20
2019-01-16T02:31:59.331Z,4.60
2019-01-16T02:32:59.382Z,4.70
2019-01-16T02:33:59.439Z,5.30
2019-01-16T02:34:59.488Z,4.60
2019-01-16T02:35:59.538Z,5.00
2019-01-16T02:36:59.591Z,4.60
2019-01-16T02:37:59.643Z,5.00
2019-01-16T02:38:59.698Z,4.30
2019-01-16T02:39:59.748Z,4.50
2019-01-16T02:40:59.799Z,4.80
2019-01-16T02:41:59.854Z,4.20
2019-01-16T02:42:59.905Z,4.40
2019-01-16T02:43:59.957Z,4.50
2019-01-16T02:45:00.018Z,4.70
2019-01-16T02:46:00.063Z,4.00
2019-01-16T02:47:00.115Z,4.90
2019-01-16T02:48:00.168Z,4.00
2019-01-16T02:49:00.219Z,4.00
2019-01-16T02:50:00.302Z,4.20
2019-01-16T02:51:00.332Z,3.80
2019-01-16T02:52:00.375Z,4.60
2019-01-16T02:53:00.426Z,4.30
2019-01-16T02:54:00.479Z,3.70
2019-01-16T02:55:00.533Z,4.20
2019-01-16T02:56:00.583Z,4.30
2019-01-16T02:57:00.637Z,4.70
2019-01-16T02:58:00.688Z,4.50
2019-01-16T02:59:00.743Z,4.50
2019-01-16T03:00:00.796Z,4.10
2019-01-16T03:01:00.862Z,3.80
2019-01-16T03:02:00.898Z,4.00
2019-01-16T03:03:00.951Z,3.70
2019-01-16T03:04:01.000Z,3.80
2019-01-16T03:05:01.054Z,4.40
2019-01-16T03:06:01.108Z,4.20
2019-01-16T03:07:01.159Z,4.10
2019-01-16T03:08:01.212Z,4.40
2019-01-16T03:09:01.262Z,3.50
2019-01-16T03:10:01.317Z,4.00
2019-01-16T03:11:01.370Z,3.60
2019-01-16T03:12:01.420Z,4.00
2019-01-16T03:13:01.472Z,4.40
2019-01-16T03:14:01.524Z,4.10
2019-01-16T03:15:01.578Z,4.20
2019-01-16T03:16:01.628Z,4.10
2019-01-16T03:17:01.686Z,3.80
2019-01-16T03:18:01.734Z,3.80
2019-01-16T03:19:04.694Z,4.20
2019-01-16T03:20:01.837Z,4.00
2019-01-16T03:21:01.889Z,4.10
2019-01-16T03:22:01.942Z,4.00
2019-01-16T03:23:01.995Z,4.40
2019-01-16T03:24:02.048Z,4.20
2019-01-16T03:25:02.098Z,3.80
2019-01-16T03:26:02.152Z,4.30
2019-01-16T03:27:02.205Z,4.00
2019-01-16T03:28:02.255Z,3.90
2019-01-16T03:29:02.310Z,4.30
2019-01-16T03:30:02.363Z,4.30
2019-01-16T03:31:02.462Z,4.00
2019-01-16T03:32:02.479Z,4.20
2019-01-16T03:33:02.525Z,4.30
2019-01-16T03:34:02.569Z,4.20
2019-01-16T03:35:02.621Z,4.10
2019-01-16T03:36:02.673Z,4.20
2019-01-16T03:37:02.727Z,3.60
2019-01-16T03:38:02.778Z,3.90
2019-01-16T03:39:02.830Z,4.00
2019-01-16T03:40:02.882Z,4.20
2019-01-16T03:41:02.935Z,4.30
2019-01-16T03:42:02.987Z,4.20
2019-01-16T03:43:03.039Z,4.00
2019-01-16T03:44:03.092Z,3.60
2019-01-16T03:45:03.142Z,4.10
2019-01-16T03:46:03.198Z,4.20
2019-01-16T03:47:03.249Z,4.10
2019-01-16T03:48:03.299Z,3.90
2019-01-16T03:49:03.355Z,3.60
2019-01-16T03:50:03.405Z,4.10
2019-01-16T03:51:03.456Z,4.20
2019-01-16T03:52:03.508Z,4.60
2019-01-16T03:53:03.579Z,3.20
2019-01-16T03:54:03.616Z,4.00
2019-01-16T03:55:03.666Z,3.80
2019-01-16T03:56:03.732Z,3.70
2019-01-16T03:57:03.770Z,4.00
2019-01-16T03:58:03.824Z,3.70
2019-01-16T03:59:03.875Z,3.40
2019-01-16T04:00:03.928Z,3.70
2019-01-16T04:01:03.982Z,4.00
2019-01-16T04:02:04.032Z,3.70
2019-01-16T04:03:04.083Z,4.00
2019-01-16T04:04:04.133Z,3.90
2019-01-16T04:05:04.186Z,3.90
2019-01-16T04:06:04.239Z,3.60
2019-01-16T04:07:04.292Z,3.40
2019-01-16T04:08:04.342Z,3.40
2019-01-16T04:09:04.397Z,3.60
2019-01-16T04:10:04.448Z,3.40
2019-01-16T04:11:04.500Z,3.90
2019-01-16T04:12:04.558Z,3.40
2019-01-16T04:13:04.605Z,3.30
2019-01-16T04:14:04.659Z,3.50
2019-01-16T04:15:04.711Z,3.70
2019-01-16T04:16:04.759Z,4.00
2019-01-16T04:17:04.811Z,3.80
2019-01-16T04:18:04.867Z,4.00
2019-01-16T04:19:04.921Z,3.30
2019-01-16T04:20:04.969Z,4.00
2019-01-16T04:21:05.020Z,4.10
2019-01-16T04:22:05.078Z,3.90
2019-01-16T04:23:05.125Z,4.50
2019-01-16T04:24:05.181Z,4.00
2019-01-16T04:25:05.229Z,4.00
2019-01-16T04:26:05.281Z,4.10
2019-01-16T04:27:05.335Z,4.20
2019-01-16T04:28:05.385Z,3.90
2019-01-16T04:29:05.436Z,3.40
2019-01-16T04:30:05.491Z,3.80
2019-01-16T04:31:05.542Z,3.70
2019-01-16T04:32:05.594Z,3.60
2019-01-16T04:33:05.646Z,3.60
2019-01-16T04:34:05.699Z,3.80
2019-01-16T04:35:05.749Z,3.80
2019-01-16T04:36:05.808Z,3.60
2019-01-16T04:37:05.854Z,3.90
2019-01-16T04:38:05.907Z,3.90
2019-01-16T04:39:05.961Z,3.50
2019-01-16T04:40:06.009Z,3.20
2019-01-16T04:41:06.062Z,3.30
2019-01-16T04:42:06.114Z,3.40
2019-01-16T04:43:06.166Z,3.80
2019-01-16T04:44:06.218Z,3.70
2019-01-16T04:45:06.270Z,3.80
2019-01-16T04:46:06.324Z,4.30
2019-01-16T04:47:06.405Z,3.70
2019-01-16T04:48:06.428Z,3.70
2019-01-16T04:49:06.498Z,3.50
2019-01-16T04:50:06.531Z,3.40
2019-01-16T04:51:06.584Z,4.40
2019-01-16T04:52:06.634Z,3.80
2019-01-16T04:53:06.687Z,3.40
2019-01-16T04:54:06.739Z,3.80
2019-01-16T04:55:06.790Z,3.60
2019-01-16T04:56:06.843Z,3.20
2019-01-16T04:57:06.895Z,3.10
2019-01-16T04:58:06.948Z,3.90
2019-01-16T04:59:07.021Z,3.40
2019-01-16T05:00:07.122Z,3.90
2019-01-16T05:01:07.103Z,3.80
2019-01-16T05:02:07.155Z,3.30
2019-01-16T05:03:07.212Z,3.60
2019-01-16T05:04:07.259Z,3.60
2019-01-16T05:05:07.347Z,4.10
2019-01-16T05:06:07.363Z,3.70
2019-01-16T05:07:07.449Z,3.50
2019-01-16T05:08:07.466Z,3.90
2019-01-16T05:09:07.518Z,3.90
2019-01-16T05:10:07.586Z,3.80
2019-01-16T05:11:07.626Z,3.60
2019-01-16T05:12:07.674Z,3.30
2019-01-16T05:13:07.728Z,3.80
2019-01-16T05:14:07.781Z,4.20
2019-01-16T05:15:08.197Z,4.00
2019-01-16T05:16:08.566Z,4.20
2019-01-16T05:17:08.494Z,3.60
2019-01-16T05:18:07.990Z,4.00
2019-01-16T05:19:08.043Z,4.10
2019-01-16T05:20:08.092Z,4.00
2019-01-16T05:21:08.145Z,4.00
2019-01-16T05:22:08.196Z,4.30
2019-01-16T05:23:08.251Z,3.70
2019-01-16T05:24:08.904Z,3.80
2019-01-16T05:25:08.940Z,4.50
2019-01-16T05:26:08.969Z,4.20
2019-01-16T05:27:08.988Z,4.30
2019-01-16T05:28:09.034Z,4.10
2019-01-16T05:29:09.132Z,4.00
2019-01-16T05:30:09.153Z,3.80
2019-01-16T05:31:09.319Z,4.50
2019-01-16T05:32:08.718Z,4.00
2019-01-16T05:33:08.771Z,5.00
2019-01-16T05:34:08.821Z,4.40
2019-01-16T05:35:08.930Z,4.60
2019-01-16T05:36:08.925Z,4.40
2019-01-16T05:37:09.313Z,4.70
2019-01-16T05:38:09.030Z,4.00
2019-01-16T05:39:09.082Z,4.40
2019-01-16T05:40:09.133Z,3.90
2019-01-16T05:41:09.187Z,4.30
2019-01-16T05:42:09.239Z,4.20
2019-01-16T05:43:09.290Z,4.40
2019-01-16T05:44:09.343Z,4.00
2019-01-16T05:45:09.397Z,4.10
2019-01-16T05:46:09.451Z,4.50
2019-01-16T05:47:09.502Z,4.10
2019-01-16T05:48:09.551Z,4.10
2019-01-16T05:49:09.604Z,4.10
2019-01-16T05:50:09.655Z,4.40
2019-01-16T05:51:09.710Z,3.80
2019-01-16T05:52:09.763Z,3.80
2019-01-16T05:53:09.812Z,4.30
2019-01-16T05:54:09.864Z,4.20
2019-01-16T05:55:09.950Z,4.30
2019-01-16T05:56:09.968Z,4.30
2019-01-16T05:57:10.019Z,4.50
2019-01-16T05:58:10.099Z,4.10
2019-01-16T05:59:10.128Z,3.90
2019-01-16T06:00:10.179Z,4.20
2019-01-16T06:01:10.229Z,4.60
2019-01-16T06:02:10.282Z,4.60
2019-01-16T06:03:10.334Z,4.20
2019-01-16T06:04:10.386Z,4.00
2019-01-16T06:05:10.438Z,4.30
2019-01-16T06:06:10.491Z,4.20
2019-01-16T06:07:10.559Z,4.20
2019-01-16T06:08:10.594Z,4.20
2019-01-16T06:09:10.647Z,4.10
2019-01-16T06:10:10.699Z,3.80
2019-01-16T06:11:10.751Z,4.50
2019-01-16T06:12:10.801Z,4.10
2019-01-16T06:13:10.853Z,4.30
2019-01-16T06:14:10.906Z,4.10
2019-01-16T06:15:10.959Z,4.20
2019-01-16T06:16:11.010Z,3.90
2019-01-16T06:17:11.063Z,4.10
2019-01-16T06:18:11.115Z,4.30
2019-01-16T06:19:11.166Z,4.30
2019-01-16T06:20:11.219Z,3.60
2019-01-16T06:21:11.315Z,4.20
2019-01-16T06:22:11.343Z,4.30
2019-01-16T06:23:11.376Z,4.10
2019-01-16T06:24:11.427Z,4.60
2019-01-16T06:25:11.480Z,4.60
2019-01-16T06:26:11.567Z,4.20
2019-01-16T06:27:16.535Z,4.30
2019-01-16T06:28:11.635Z,4.20
2019-01-16T06:29:11.689Z,4.00
2019-01-16T06:30:11.773Z,4.20
2019-01-16T06:31:11.792Z,3.90
2019-01-16T06:32:11.843Z,4.30
2019-01-16T06:33:11.914Z,4.30
2019-01-16T06:34:11.964Z,4.10
2019-01-16T06:35:12.015Z,4.00
2019-01-16T06:36:12.051Z,4.40
2019-01-16T06:37:12.104Z,4.10
2019-01-16T06:38:12.156Z,4.50
2019-01-16T06:39:12.209Z,3.90
2019-01-16T06:40:12.283Z,4.30
2019-01-16T06:41:12.312Z,4.50
2019-01-16T06:42:12.364Z,4.80
2019-01-16T06:43:12.424Z,4.80
2019-01-16T06:44:12.500Z,4.10
2019-01-16T06:45:12.521Z,4.00
2019-01-16T06:46:12.604Z,4.20
2019-01-16T06:47:12.627Z,4.30
2019-01-16T06:48:12.675Z,4.40
2019-01-16T06:49:12.729Z,4.10
2019-01-16T06:50:16.573Z,4.60
2019-01-16T06:51:12.833Z,4.10
2019-01-16T06:52:12.884Z,4.30
2019-01-16T06:53:12.936Z,4.20
2019-01-16T06:54:12.988Z,3.90
2019-01-16T06:55:13.041Z,3.90
2019-01-16T06:56:13.093Z,4.20
2019-01-16T06:57:13.146Z,4.20
2019-01-16T06:58:13.296Z,4.00
2019-01-16T06:59:13.957Z,3.80
2019-01-16T07:00:14.330Z,4.30
2019-01-16T07:01:13.765Z,3.80
2019-01-16T07:02:13.404Z,4.10
2019-01-16T07:03:13.734Z,4.10
2019-01-16T07:04:13.509Z,4.50
2019-01-16T07:05:13.561Z,4.10
2019-01-16T07:06:13.614Z,4.20
2019-01-16T07:07:13.666Z,3.80
2019-01-16T07:08:14.480Z,3.90
2019-01-16T07:09:13.769Z,4.00
2019-01-16T07:10:13.827Z,4.10
2019-01-16T07:11:13.877Z,3.70
2019-01-16T07:12:14.562Z,3.90
2019-01-16T07:13:14.566Z,4.00
2019-01-16T07:14:14.522Z,4.40
2019-01-16T07:15:14.587Z,3.50
2019-01-16T07:16:14.805Z,3.80
2019-01-16T07:17:14.868Z,3.90
2019-01-16T07:18:14.921Z,3.60
2019-01-16T07:19:14.291Z,3.80
2019-01-16T07:20:14.343Z,4.30
2019-01-16T07:21:14.394Z,3.70
2019-01-16T07:22:14.449Z,3.40
2019-01-16T07:23:14.502Z,3.90
2019-01-16T07:24:14.551Z,3.90
2019-01-16T07:25:14.602Z,3.50
2019-01-16T07:26:14.655Z,3.80
2019-01-16T07:27:14.707Z,3.80
2019-01-16T07:28:14.759Z,3.50
2019-01-16T07:29:14.812Z,3.70
2019-01-16T07:30:14.863Z,3.70
2019-01-16T07:31:14.916Z,3.70
2019-01-16T07:32:14.971Z,3.40
2019-01-16T07:33:15.021Z,3.60
2019-01-16T07:34:15.072Z,3.20
2019-01-16T07:35:15.127Z,3.40
2019-01-16T07:36:15.199Z,3.80
2019-01-16T07:37:15.252Z,3.70
2019-01-16T07:38:15.303Z,3.30
2019-01-16T07:39:15.334Z,3.60
2019-01-16T07:40:15.385Z,3.80
2019-01-16T07:41:15.439Z,4.00
2019-01-16T07:42:15.493Z,3.20
2019-01-16T07:43:15.544Z,3.30
2019-01-16T07:44:15.643Z,3.70
2019-01-16T07:45:15.646Z,3.60
2019-01-16T07:46:15.710Z,3.70
2019-01-16T07:47:15.751Z,3.70
2019-01-16T07:48:15.801Z,3.40
2019-01-16T07:49:15.857Z,3.50
2019-01-16T07:50:17.421Z,3.40
2019-01-16T07:51:15.960Z,3.10
2019-01-16T07:52:16.010Z,3.60
2019-01-16T07:53:16.062Z,3.80
2019-01-16T07:54:16.132Z,3.20
2019-01-16T07:55:16.207Z,4.20
2019-01-16T07:56:16.218Z,3.70
2019-01-16T07:57:16.280Z,3.40
2019-01-16T07:58:16.331Z,3.10
2019-01-16T07:59:21.676Z,3.80
2019-01-16T08:00:16.461Z,3.90
2019-01-16T08:01:16.480Z,3.80
2019-01-16T08:02:16.849Z,3.50
2019-01-16T08:03:16.604Z,3.70
2019-01-16T08:04:16.635Z,3.70
2019-01-16T08:05:16.687Z,3.50
2019-01-16T08:06:16.741Z,3.40
2019-01-16T08:07:17.484Z,3.80
2019-01-16T08:08:16.913Z,3.80
2019-01-16T08:09:16.897Z,3.40
2019-01-16T08:10:16.953Z,4.10
2019-01-16T08:11:17.001Z,3.40
2019-01-16T08:12:17.052Z,3.90
2019-01-16T08:13:17.106Z,3.80
2019-01-16T08:14:17.161Z,3.60
2019-01-16T08:15:17.937Z,3.50
2019-01-16T08:16:17.263Z,3.50
2019-01-16T08:17:17.317Z,3.70
2019-01-16T08:18:17.367Z,3.80
2019-01-16T08:19:17.421Z,3.50
2019-01-16T08:20:24.714Z,3.90
2019-01-16T08:21:17.523Z,3.70
2019-01-16T08:22:17.576Z,3.40
2019-01-16T08:23:17.628Z,3.20
2019-01-16T08:24:17.681Z,3.50
2019-01-16T08:25:17.736Z,3.40
2019-01-16T08:26:17.788Z,3.20
2019-01-16T08:27:17.838Z,3.40
2019-01-16T08:28:17.890Z,3.90
2019-01-16T08:29:17.942Z,3.60
2019-01-16T08:30:17.995Z,3.90
2019-01-16T08:31:18.047Z,3.50
2019-01-16T08:32:18.101Z,3.70
2019-01-16T08:33:18.155Z,3.10
2019-01-16T08:34:18.203Z,3.10
2019-01-16T08:35:18.256Z,3.50
2019-01-16T08:36:18.309Z,3.50
2019-01-16T08:37:18.360Z,4.00
2019-01-16T08:38:18.413Z,3.90
2019-01-16T08:39:18.466Z,3.50
2019-01-16T08:40:19.003Z,3.10
2019-01-16T08:41:18.569Z,3.30
2019-01-16T08:42:18.622Z,3.50
2019-01-16T08:43:18.676Z,3.80
2019-01-16T08:44:18.724Z,3.60
2019-01-16T08:45:19.158Z,3.10
2019-01-16T08:46:19.235Z,3.70
2019-01-16T08:47:18.899Z,3.40
2019-01-16T08:48:18.934Z,3.40
2019-01-16T08:49:18.986Z,3.80
2019-01-16T08:50:19.040Z,3.30
2019-01-16T08:51:19.092Z,3.50
2019-01-16T08:52:19.146Z,3.80
2019-01-16T08:53:19.200Z,3.40
2019-01-16T08:54:19.252Z,3.60
2019-01-16T08:55:19.303Z,3.60
2019-01-16T08:56:19.352Z,3.50
2019-01-16T08:57:19.406Z,3.30
2019-01-16T08:58:19.458Z,3.20
2019-01-16T08:59:19.509Z,3.80
2019-01-16T09:00:19.560Z,4.10
2019-01-16T09:01:19.613Z,3.60
2019-01-16T09:02:19.670Z,3.50
2019-01-16T09:03:19.718Z,3.60
2019-01-16T09:04:19.769Z,3.20
2019-01-16T09:05:20.283Z,3.60
2019-01-16T09:06:19.926Z,3.50
2019-01-16T09:07:19.928Z,3.20
2019-01-16T09:08:19.984Z,3.30
2019-01-16T09:09:20.030Z,2.80
2019-01-16T09:10:20.083Z,3.00
2019-01-16T09:11:20.135Z,3.60
2019-01-16T09:12:20.187Z,3.00
2019-01-16T09:13:20.239Z,3.30
2019-01-16T09:14:20.293Z,3.40
2019-01-16T09:15:20.345Z,3.00
2019-01-16T09:16:20.397Z,3.40
2019-01-16T09:17:20.450Z,3.40
2019-01-16T09:18:20.502Z,3.60
2019-01-16T09:19:20.555Z,3.00
2019-01-16T09:20:20.605Z,3.20
2019-01-16T09:21:20.658Z,3.40
2019-01-16T09:22:20.710Z,3.10
2019-01-16T09:23:20.763Z,3.50
2019-01-16T09:24:20.868Z,3.00
2019-01-16T09:25:20.867Z,4.00
2019-01-16T09:26:20.937Z,3.30
2019-01-16T09:27:20.974Z,3.20
2019-01-16T09:28:21.022Z,3.30
2019-01-16T09:29:21.075Z,3.10
2019-01-16T09:30:21.128Z,3.10
2019-01-16T09:31:21.181Z,3.10
2019-01-16T09:32:21.233Z,3.30
2019-01-16T09:33:21.285Z,3.00
2019-01-16T09:34:21.337Z,2.90
2019-01-16T09:35:21.390Z,3.20
2019-01-16T09:36:21.442Z,3.30
2019-01-16T09:37:21.492Z,3.20
2019-01-16T09:38:21.548Z,3.00
2019-01-16T09:39:21.599Z,3.00
2019-01-16T09:40:21.650Z,2.80
2019-01-16T09:41:21.703Z,3.50
2019-01-16T09:42:21.755Z,2.90
2019-01-16T09:43:21.814Z,3.40
2019-01-16T09:44:21.860Z,3.00
2019-01-16T09:45:22.507Z,3.20
2019-01-16T09:46:21.963Z,2.70
2019-01-16T09:47:22.017Z,2.80
2019-01-16T09:48:22.068Z,2.90
2019-01-16T09:49:22.121Z,2.70
2019-01-16T09:50:22.173Z,3.10
2019-01-16T09:51:22.225Z,3.10
2019-01-16T09:52:22.278Z,3.10
2019-01-16T09:53:22.328Z,2.90
2019-01-16T09:54:22.382Z,3.00
2019-01-16T09:55:22.435Z,2.90
2019-01-16T09:56:22.486Z,2.50
2019-01-16T09:57:22.846Z,2.90
2019-01-16T09:58:22.591Z,3.20
2019-01-16T09:59:22.644Z,3.30
2019-01-16T10:00:22.700Z,2.50
2019-01-16T10:01:22.748Z,3.00
2019-01-16T10:02:22.801Z,2.80
2019-01-16T10:03:22.853Z,2.80
2019-01-16T10:04:22.904Z,2.60
2019-01-16T10:05:22.956Z,2.90
2019-01-16T10:06:23.011Z,2.80
2019-01-16T10:07:23.062Z,3.30
2019-01-16T10:08:23.114Z,3.10
2019-01-16T10:09:23.169Z,2.90
2019-01-16T10:10:23.220Z,3.00
2019-01-16T10:11:23.271Z,2.90
2019-01-16T10:12:23.323Z,3.00
2019-01-16T10:13:23.377Z,3.00
2019-01-16T10:14:23.428Z,3.40
2019-01-16T10:15:23.480Z,2.70
2019-01-16T10:16:23.537Z,3.00
2019-01-16T10:17:23.591Z,2.80
2019-01-16T10:18:23.637Z,3.00
2019-01-16T10:19:23.688Z,2.40
2019-01-16T10:20:23.741Z,2.50
2019-01-16T10:21:23.796Z,3.20
2019-01-16T10:22:23.846Z,2.80
2019-01-16T10:23:23.898Z,2.70
2019-01-16T10:24:23.950Z,3.20
2019-01-16T10:25:24.001Z,3.00
2019-01-16T10:26:24.056Z,2.90
2019-01-16T10:27:24.108Z,3.20
2019-01-16T10:28:24.160Z,3.00
2019-01-16T10:29:24.212Z,3.10
2019-01-16T10:30:24.264Z,2.80
2019-01-16T10:31:24.320Z,2.70
2019-01-16T10:32:24.370Z,2.80
2019-01-16T10:33:24.422Z,3.20
2019-01-16T10:34:24.475Z,3.30
2019-01-16T10:35:24.526Z,2.90
2019-01-16T10:36:24.579Z,2.90
2019-01-16T10:37:24.632Z,2.70
2019-01-16T10:38:24.683Z,2.90
2019-01-16T10:39:24.738Z,2.60
2019-01-16T10:40:24.789Z,3.20
2019-01-16T10:41:24.841Z,3.10
2019-01-16T10:42:24.895Z,3.10
2019-01-16T10:43:24.951Z,3.10
2019-01-16T10:44:24.999Z,2.70
2019-01-16T10:45:25.053Z,2.90
2019-01-16T10:46:25.105Z,2.70
2019-01-16T10:47:25.157Z,3.20
2019-01-16T10:48:25.212Z,2.70
2019-01-16T10:49:25.263Z,2.90
2019-01-16T10:50:25.315Z,3.00
2019-01-16T10:51:25.372Z,3.10
2019-01-16T10:52:25.421Z,2.60
2019-01-16T10:53:25.498Z,2.90
2019-01-16T10:54:25.526Z,3.20
2019-01-16T10:55:25.579Z,2.70
2019-01-16T10:56:25.630Z,2.80
2019-01-16T10:57:26.930Z,3.10
2019-01-16T10:58:25.738Z,2.90
2019-01-16T10:59:25.867Z,2.60
2019-01-16T11:00:25.844Z,3.30
2019-01-16T11:01:25.894Z,4.60
2019-01-16T11:02:25.947Z,5.50
2019-01-16T11:03:26.001Z,8.00
2019-01-16T11:04:26.053Z,7.10
2019-01-16T11:05:26.107Z,5.30
2019-01-16T11:06:26.160Z,4.00
2019-01-16T11:07:26.215Z,3.50
2019-01-16T11:08:26.267Z,3.90
2019-01-16T11:09:26.316Z,3.20
2019-01-16T11:10:26.371Z,2.90
2019-01-16T11:11:26.423Z,3.20
2019-01-16T11:12:26.474Z,3.10
2019-01-16T11:13:26.592Z,2.80
2019-01-16T11:14:26.582Z,2.70
2019-01-16T11:15:27.418Z,2.80
2019-01-16T11:16:26.687Z,3.30
2019-01-16T11:17:27.353Z,2.60
2019-01-16T11:18:26.793Z,3.20
2019-01-16T11:19:26.850Z,2.90
2019-01-16T11:20:26.898Z,3.20
2019-01-16T11:21:26.950Z,2.60
2019-01-16T11:22:27.450Z,2.80
2019-01-16T11:23:27.056Z,3.10
2019-01-16T11:24:27.113Z,2.40
2019-01-16T11:25:27.162Z,3.20
2019-01-16T11:26:27.642Z,2.70
2019-01-16T11:27:27.268Z,2.70
2019-01-16T11:28:28.018Z,2.90
2019-01-16T11:29:27.992Z,3.20
2019-01-16T11:30:28.259Z,2.80
2019-01-16T11:31:28.161Z,2.80
2019-01-16T11:32:27.532Z,3.40
2019-01-16T11:33:27.587Z,2.70
2019-01-16T11:34:27.639Z,2.70
2019-01-16T11:35:28.303Z,2.90
2019-01-16T11:36:28.193Z,2.80
2019-01-16T11:37:27.798Z,2.80
2019-01-16T11:38:27.853Z,2.60
2019-01-16T11:39:27.904Z,3.20
2019-01-16T11:40:27.955Z,2.80
2019-01-16T11:41:28.008Z,2.60
2019-01-16T11:42:28.068Z,2.70
2019-01-16T11:43:28.115Z,3.40
2019-01-16T11:44:28.167Z,2.70
2019-01-16T11:45:28.219Z,2.60
2019-01-16T11:46:28.274Z,2.90
2019-01-16T11:47:28.326Z,2.50
2019-01-16T11:48:28.381Z,3.10
2019-01-16T11:49:28.437Z,2.40
2019-01-16T11:50:28.486Z,2.80
2019-01-16T11:51:33.651Z,2.70
2019-01-16T11:52:28.592Z,2.60
2019-01-16T11:53:28.645Z,3.10
2019-01-16T11:54:28.704Z,2.80
2019-01-16T11:55:28.751Z,2.60
2019-01-16T11:56:28.811Z,2.60
2019-01-16T11:57:28.859Z,2.80
2019-01-16T11:58:28.910Z,2.70
2019-01-16T11:59:29.181Z,2.30
2019-01-16T12:00:29.016Z,2.50
2019-01-16T12:01:29.847Z,2.80
2019-01-16T12:02:29.123Z,2.60
2019-01-16T12:03:29.175Z,2.70
2019-01-16T12:04:29.228Z,2.40
2019-01-16T12:05:29.282Z,2.60
2019-01-16T12:06:29.336Z,2.60
2019-01-16T12:07:29.390Z,2.60
2019-01-16T12:08:29.442Z,2.30
2019-01-16T12:09:29.495Z,2.70
2019-01-16T12:10:29.557Z,2.50
2019-01-16T12:11:29.603Z,2.60
2019-01-16T12:12:29.658Z,2.50
2019-01-16T12:13:29.712Z,2.20
2019-01-16T12:14:29.763Z,2.70
2019-01-16T12:15:29.817Z,2.80
2019-01-16T12:16:29.869Z,2.50
2019-01-16T12:17:29.923Z,2.60
2019-01-16T12:18:29.977Z,2.30
2019-01-16T12:19:30.032Z,2.60
2019-01-16T12:20:30.084Z,3.00
2019-01-16T12:21:30.136Z,2.50
2019-01-16T12:22:30.191Z,2.40
2019-01-16T12:23:30.256Z,2.70
2019-01-16T12:24:30.297Z,2.20
2019-01-16T12:25:30.373Z,2.80
2019-01-16T12:26:30.404Z,2.50
2019-01-16T12:27:30.458Z,2.80
2019-01-16T12:28:30.512Z,2.90
2019-01-16T12:29:30.566Z,2.40
2019-01-16T12:30:30.621Z,2.30
2019-01-16T12:31:30.674Z,2.40
2019-01-16T12:32:30.726Z,2.90
2019-01-16T12:33:30.782Z,2.20
2019-01-16T12:34:30.835Z,2.70
2019-01-16T12:35:30.888Z,2.70
2019-01-16T12:36:31.512Z,2.80
2019-01-16T12:37:43.732Z,2.30
2019-01-16T12:38:31.053Z,2.50
2019-01-16T12:39:31.104Z,2.70
2019-01-16T12:40:31.157Z,2.50
2019-01-16T12:41:31.211Z,2.70
2019-01-16T12:42:31.263Z,2.70
2019-01-16T12:43:31.318Z,2.40
2019-01-16T12:44:31.371Z,2.80
2019-01-16T12:45:31.425Z,2.20
2019-01-16T12:46:31.480Z,2.30
2019-01-16T12:47:31.534Z,3.00
2019-01-16T12:48:31.587Z,2.30
2019-01-16T12:49:31.644Z,2.70
2019-01-16T12:50:32.117Z,2.40
2019-01-16T12:51:33.767Z,2.40
2019-01-16T12:52:31.802Z,2.40
2019-01-16T12:53:32.378Z,2.80
2019-01-16T12:54:32.540Z,2.80
2019-01-16T12:55:32.593Z,2.60
2019-01-16T12:56:32.020Z,2.40
2019-01-16T12:57:32.077Z,3.10
2019-01-16T12:58:32.129Z,2.60
2019-01-16T12:59:32.184Z,2.50
2019-01-16T13:00:32.236Z,2.40
2019-01-16T13:01:32.292Z,2.50
2019-01-16T13:02:32.345Z,2.80
2019-01-16T13:03:32.530Z,2.60
2019-01-16T13:05:32.819Z,2.60
2019-01-16T13:06:33.229Z,2.70
2019-01-16T13:07:32.673Z,2.30
2019-01-16T13:08:32.731Z,2.30
2019-01-16T13:09:33.137Z,2.90
2019-01-16T13:10:32.833Z,3.00
2019-01-16T13:11:33.235Z,2.50
2019-01-16T13:12:32.946Z,2.50
2019-01-16T13:13:33.344Z,2.40
2019-01-16T13:14:33.041Z,2.60
2019-01-16T13:15:33.086Z,2.70
2019-01-16T13:16:33.145Z,2.80
2019-01-16T13:17:33.162Z,2.60
2019-01-16T13:18:33.215Z,2.70
2019-01-16T13:19:33.272Z,2.80
2019-01-16T13:20:33.328Z,2.80